Terminal Aerodrome Forecast
Issued by NWS Memphis, TN

Home | Current Version | Previous Version | Text Only | Print | Product List | Glossary On
Versions: 1 2 3 4 5 6 7 8 9 10 11 12 13 14 15 16
000
FTUS44 KMEG 242324
TAFJBR
TAF
KJBR 242324Z 2500/2524 34007KT P6SM SCT025 BKN060
     FM250300 32003KT P6SM SCT060
     FM251400 32006KT P6SM VCSH BKN100 OVC250
     FM251700 30006KT P6SM -RA SCT015 OVC050
      TEMPO 2521/2524 6SM -RA BR BKN015=

USA.gov is the U.S. government's official web portal to all federal, state and local government web resources and services.